sensor_id;sensor_type;location;lat;lon;timestamp;P1;durP1;ratioP1;P2;durP2;ratioP2
63110;SDS011;49201;53.426;10.300;2023-04-15T00:00:33;9.03;;;6.50;;
63110;SDS011;49201;53.426;10.300;2023-04-15T00:02:58;8.37;;;6.43;;
63110;SDS011;49201;53.426;10.300;2023-04-15T00:05:26;6.73;;;5.93;;
63110;SDS011;49201;53.426;10.300;2023-04-15T00:07:53;7.70;;;6.50;;
63110;SDS011;49201;53.426;10.300;2023-04-15T00:10:19;10.17;;;7.00;;
63110;SDS011;49201;53.426;10.300;2023-04-15T00:12:44;8.53;;;6.60;;
63110;SDS011;49201;53.426;10.300;2023-04-15T00:15:10;8.60;;;6.50;;
63110;SDS011;49201;53.426;10.300;2023-04-15T00:17:36;8.30;;;6.80;;
63110;SDS011;49201;53.426;10.300;2023-04-15T00:20:04;8.90;;;6.20;;
63110;SDS011;49201;53.426;10.300;2023-04-15T00:22:30;7.23;;;5.90;;
63110;SDS011;49201;53.426;10.300;2023-04-15T00:24:56;9.47;;;6.47;;
63110;SDS011;49201;53.426;10.300;2023-04-15T00:27:22;7.47;;;5.57;;
63110;SDS011;49201;53.426;10.300;2023-04-15T00:29:47;9.63;;;6.53;;
63110;SDS011;49201;53.426;10.300;2023-04-15T00:32:12;7.50;;;6.20;;
63110;SDS011;49201;53.426;10.300;2023-04-15T00:34:39;8.10;;;6.37;;
63110;SDS011;49201;53.426;10.300;2023-04-15T00:37:06;9.47;;;6.70;;
63110;SDS011;49201;53.426;10.300;2023-04-15T00:39:31;9.30;;;6.80;;
63110;SDS011;49201;53.426;10.300;2023-04-15T00:41:57;9.43;;;6.83;;
63110;SDS011;49201;53.426;10.300;2023-04-15T00:44:22;10.07;;;6.60;;
63110;SDS011;49201;53.426;10.300;2023-04-15T00:46:49;8.40;;;6.37;;
63110;SDS011;49201;53.426;10.300;2023-04-15T00:49:15;8.00;;;5.97;;
63110;SDS011;49201;53.426;10.300;2023-04-15T00:51:42;8.10;;;6.47;;
63110;SDS011;49201;53.426;10.300;2023-04-15T00:54:07;10.17;;;6.83;;
63110;SDS011;49201;53.426;10.300;2023-04-15T00:56:34;10.30;;;6.57;;
63110;SDS011;49201;53.426;10.300;2023-04-15T00:59:00;8.47;;;6.67;;
63110;SDS011;49201;53.426;10.300;2023-04-15T01:01:26;8.43;;;7.10;;
63110;SDS011;49201;53.426;10.300;2023-04-15T01:03:54;8.00;;;6.23;;
63110;SDS011;49201;53.426;10.300;2023-04-15T01:06:20;7.27;;;6.30;;
63110;SDS011;49201;53.426;10.300;2023-04-15T01:08:46;10.43;;;6.23;;
63110;SDS011;49201;53.426;10.300;2023-04-15T01:11:12;8.07;;;6.20;;
63110;SDS011;49201;53.426;10.300;2023-04-15T01:13:38;10.13;;;6.50;;
63110;SDS011;49201;53.426;10.300;2023-04-15T01:16:04;9.67;;;6.37;;
63110;SDS011;49201;53.426;10.300;2023-04-15T01:18:30;7.77;;;6.20;;
63110;SDS011;49201;53.426;10.300;2023-04-15T01:20:58;7.17;;;5.47;;
63110;SDS011;49201;53.426;10.300;2023-04-15T01:23:25;7.57;;;5.80;;
63110;SDS011;49201;53.426;10.300;2023-04-15T01:25:52;7.17;;;5.57;;
63110;SDS011;49201;53.426;10.300;2023-04-15T01:28:18;7.80;;;6.00;;
63110;SDS011;49201;53.426;10.300;2023-04-15T01:30:44;8.37;;;6.30;;
63110;SDS011;49201;53.426;10.300;2023-04-15T01:33:09;8.33;;;5.60;;
63110;SDS011;49201;53.426;10.300;2023-04-15T01:35:36;6.93;;;5.77;;
63110;SDS011;49201;53.426;10.300;2023-04-15T01:38:04;7.93;;;6.33;;
63110;SDS011;49201;53.426;10.300;2023-04-15T01:40:31;8.07;;;6.17;;
63110;SDS011;49201;53.426;10.300;2023-04-15T01:42:58;7.87;;;6.17;;
63110;SDS011;49201;53.426;10.300;2023-04-15T01:45:24;8.27;;;6.30;;
63110;SDS011;49201;53.426;10.300;2023-04-15T01:47:49;8.27;;;6.40;;
63110;SDS011;49201;53.426;10.300;2023-04-15T01:50:15;9.33;;;6.20;;
63110;SDS011;49201;53.426;10.300;2023-04-15T01:52:40;8.90;;;5.90;;
63110;SDS011;49201;53.426;10.300;2023-04-15T01:55:06;8.93;;;5.73;;
63110;SDS011;49201;53.426;10.300;2023-04-15T01:57:33;7.43;;;6.17;;
63110;SDS011;49201;53.426;10.300;2023-04-15T01:59:59;8.57;;;6.87;;
63110;SDS011;49201;53.426;10.300;2023-04-15T02:02:25;9.13;;;6.70;;
63110;SDS011;49201;53.426;10.300;2023-04-15T02:04:50;8.60;;;6.73;;
63110;SDS011;49201;53.426;10.300;2023-04-15T02:07:16;8.33;;;6.87;;
63110;SDS011;49201;53.426;10.300;2023-04-15T02:09:41;8.07;;;6.80;;
63110;SDS011;49201;53.426;10.300;2023-04-15T02:12:08;8.80;;;6.97;;
63110;SDS011;49201;53.426;10.300;2023-04-15T02:14:33;9.17;;;7.50;;
63110;SDS011;49201;53.426;10.300;2023-04-15T02:16:59;9.53;;;7.73;;
63110;SDS011;49201;53.426;10.300;2023-04-15T02:19:31;9.80;;;7.20;;
63110;SDS011;49201;53.426;10.300;2023-04-15T02:21:57;10.60;;;7.43;;
63110;SDS011;49201;53.426;10.300;2023-04-15T02:24:22;11.97;;;8.37;;
63110;SDS011;49201;53.426;10.300;2023-04-15T02:26:48;14.77;;;8.90;;
63110;SDS011;49201;53.426;10.300;2023-04-15T02:29:14;12.10;;;8.33;;
63110;SDS011;49201;53.426;10.300;2023-04-15T02:31:39;15.23;;;9.40;;
63110;SDS011;49201;53.426;10.300;2023-04-15T02:34:06;13.70;;;8.97;;
63110;SDS011;49201;53.426;10.300;2023-04-15T02:36:32;13.93;;;9.50;;
63110;SDS011;49201;53.426;10.300;2023-04-15T02:38:58;14.70;;;9.73;;
63110;SDS011;49201;53.426;10.300;2023-04-15T02:41:25;13.43;;;10.17;;
63110;SDS011;49201;53.426;10.300;2023-04-15T02:43:53;12.73;;;9.20;;
63110;SDS011;49201;53.426;10.300;2023-04-15T02:46:18;18.03;;;11.30;;
63110;SDS011;49201;53.426;10.300;2023-04-15T02:48:46;16.53;;;11.43;;
63110;SDS011;49201;53.426;10.300;2023-04-15T02:51:15;15.53;;;10.70;;
63110;SDS011;49201;53.426;10.300;2023-04-15T02:53:44;15.47;;;11.07;;
63110;SDS011;49201;53.426;10.300;2023-04-15T02:56:10;16.83;;;11.00;;
63110;SDS011;49201;53.426;10.300;2023-04-15T02:58:36;18.50;;;12.17;;
63110;SDS011;49201;53.426;10.300;2023-04-15T03:01:03;16.80;;;11.70;;
63110;SDS011;49201;53.426;10.300;2023-04-15T03:03:29;18.97;;;12.00;;
63110;SDS011;49201;53.426;10.300;2023-04-15T03:05:54;17.63;;;11.60;;
63110;SDS011;49201;53.426;10.300;2023-04-15T03:08:20;19.10;;;12.43;;
63110;SDS011;49201;53.426;10.300;2023-04-15T03:10:46;21.33;;;12.57;;
63110;SDS011;49201;53.426;10.300;2023-04-15T03:13:12;20.87;;;13.67;;
63110;SDS011;49201;53.426;10.300;2023-04-15T03:15:38;20.70;;;14.07;;
63110;SDS011;49201;53.426;10.300;2023-04-15T03:18:03;20.63;;;13.13;;
63110;SDS011;49201;53.426;10.300;2023-04-15T03:20:29;21.10;;;13.30;;
63110;SDS011;49201;53.426;10.300;2023-04-15T03:22:54;23.03;;;14.57;;
63110;SDS011;49201;53.426;10.300;2023-04-15T03:25:22;20.33;;;12.50;;
63110;SDS011;49201;53.426;10.300;2023-04-15T03:27:47;21.33;;;14.40;;
63110;SDS011;49201;53.426;10.300;2023-04-15T03:30:12;23.17;;;14.53;;
63110;SDS011;49201;53.426;10.300;2023-04-15T03:32:39;23.83;;;14.73;;
63110;SDS011;49201;53.426;10.300;2023-04-15T03:35:06;24.50;;;15.40;;
63110;SDS011;49201;53.426;10.300;2023-04-15T03:37:32;24.43;;;14.73;;
63110;SDS011;49201;53.426;10.300;2023-04-15T03:39:57;26.23;;;15.37;;
63110;SDS011;49201;53.426;10.300;2023-04-15T03:42:23;28.20;;;14.93;;
63110;SDS011;49201;53.426;10.300;2023-04-15T03:44:48;21.40;;;14.27;;
63110;SDS011;49201;53.426;10.300;2023-04-15T03:47:13;22.70;;;14.27;;
63110;SDS011;49201;53.426;10.300;2023-04-15T03:49:39;21.63;;;13.93;;
63110;SDS011;49201;53.426;10.300;2023-04-15T03:52:05;23.00;;;14.20;;
63110;SDS011;49201;53.426;10.300;2023-04-15T03:54:30;23.13;;;14.10;;
63110;SDS011;49201;53.426;10.300;2023-04-15T03:56:56;20.50;;;13.13;;
63110;SDS011;49201;53.426;10.300;2023-04-15T03:59:21;20.17;;;13.57;;
63110;SDS011;49201;53.426;10.300;2023-04-15T04:01:47;21.83;;;14.00;;
63110;SDS011;49201;53.426;10.300;2023-04-15T04:04:12;21.97;;;13.37;;
63110;SDS011;49201;53.426;10.300;2023-04-15T04:06:38;18.87;;;12.23;;
63110;SDS011;49201;53.426;10.300;2023-04-15T04:09:03;21.10;;;13.20;;
63110;SDS011;49201;53.426;10.300;2023-04-15T04:11:29;21.83;;;13.53;;
63110;SDS011;49201;53.426;10.300;2023-04-15T04:13:54;21.70;;;13.23;;
63110;SDS011;49201;53.426;10.300;2023-04-15T04:16:20;21.83;;;13.77;;
63110;SDS011;49201;53.426;10.300;2023-04-15T04:18:45;20.80;;;13.60;;
63110;SDS011;49201;53.426;10.300;2023-04-15T04:21:11;19.97;;;13.00;;
63110;SDS011;49201;53.426;10.300;2023-04-15T04:23:36;24.70;;;14.77;;
63110;SDS011;49201;53.426;10.300;2023-04-15T04:26:02;21.50;;;14.53;;
63110;SDS011;49201;53.426;10.300;2023-04-15T04:28:27;24.63;;;15.70;;
63110;SDS011;49201;53.426;10.300;2023-04-15T04:30:53;25.17;;;14.73;;
63110;SDS011;49201;53.426;10.300;2023-04-15T04:33:18;27.83;;;16.50;;
63110;SDS011;49201;53.426;10.300;2023-04-15T04:35:44;29.53;;;17.70;;
63110;SDS011;49201;53.426;10.300;2023-04-15T04:38:09;29.50;;;17.87;;
63110;SDS011;49201;53.426;10.300;2023-04-15T04:40:35;33.03;;;18.53;;
63110;SDS011;49201;53.426;10.300;2023-04-15T04:43:01;34.77;;;19.47;;
63110;SDS011;49201;53.426;10.300;2023-04-15T04:45:26;35.77;;;19.73;;
63110;SDS011;49201;53.426;10.300;2023-04-15T04:47:52;35.70;;;19.77;;
63110;SDS011;49201;53.426;10.300;2023-04-15T04:50:17;35.97;;;19.87;;
63110;SDS011;49201;53.426;10.300;2023-04-15T04:52:43;34.23;;;20.80;;
63110;SDS011;49201;53.426;10.300;2023-04-15T04:55:08;38.67;;;21.73;;
63110;SDS011;49201;53.426;10.300;2023-04-15T04:57:33;41.63;;;21.80;;
63110;SDS011;49201;53.426;10.300;2023-04-15T05:00:04;37.03;;;22.33;;
63110;SDS011;49201;53.426;10.300;2023-04-15T05:02:32;43.13;;;23.57;;
63110;SDS011;49201;53.426;10.300;2023-04-15T05:04:57;41.97;;;22.87;;
63110;SDS011;49201;53.426;10.300;2023-04-15T05:07:23;45.93;;;24.23;;
63110;SDS011;49201;53.426;10.300;2023-04-15T05:09:48;45.60;;;25.50;;
63110;SDS011;49201;53.426;10.300;2023-04-15T05:12:15;49.07;;;26.50;;
63110;SDS011;49201;53.426;10.300;2023-04-15T05:14:40;51.47;;;26.10;;
63110;SDS011;49201;53.426;10.300;2023-04-15T05:17:06;50.63;;;26.70;;
63110;SDS011;49201;53.426;10.300;2023-04-15T05:19:32;52.93;;;28.27;;
63110;SDS011;49201;53.426;10.300;2023-04-15T05:21:58;52.43;;;27.93;;
63110;SDS011;49201;53.426;10.300;2023-04-15T05:24:23;53.40;;;28.70;;
63110;SDS011;49201;53.426;10.300;2023-04-15T05:26:49;54.80;;;28.43;;
63110;SDS011;49201;53.426;10.300;2023-04-15T05:29:15;59.23;;;29.40;;
63110;SDS011;49201;53.426;10.300;2023-04-15T05:31:40;60.77;;;31.50;;
63110;SDS011;49201;53.426;10.300;2023-04-15T05:34:07;56.80;;;30.80;;
63110;SDS011;49201;53.426;10.300;2023-04-15T05:36:33;58.37;;;32.07;;
63110;SDS011;49201;53.426;10.300;2023-04-15T05:38:58;64.03;;;33.07;;
63110;SDS011;49201;53.426;10.300;2023-04-15T05:41:24;63.93;;;32.93;;
63110;SDS011;49201;53.426;10.300;2023-04-15T05:43:50;63.43;;;32.60;;
63110;SDS011;49201;53.426;10.300;2023-04-15T05:46:15;69.37;;;34.83;;
63110;SDS011;49201;53.426;10.300;2023-04-15T05:48:41;59.70;;;32.27;;
63110;SDS011;49201;53.426;10.300;2023-04-15T05:51:06;71.50;;;36.50;;
63110;SDS011;49201;53.426;10.300;2023-04-15T05:53:32;64.03;;;34.63;;
63110;SDS011;49201;53.426;10.300;2023-04-15T05:55:57;68.23;;;37.03;;
63110;SDS011;49201;53.426;10.300;2023-04-15T05:58:23;61.87;;;33.87;;
63110;SDS011;49201;53.426;10.300;2023-04-15T06:00:48;67.97;;;36.20;;
63110;SDS011;49201;53.426;10.300;2023-04-15T06:03:14;61.77;;;34.93;;
63110;SDS011;49201;53.426;10.300;2023-04-15T06:05:39;70.27;;;37.87;;
63110;SDS011;49201;53.426;10.300;2023-04-15T06:08:05;69.77;;;36.80;;
63110;SDS011;49201;53.426;10.300;2023-04-15T06:10:30;63.23;;;35.43;;
63110;SDS011;49201;53.426;10.300;2023-04-15T06:13:00;69.10;;;36.97;;
63110;SDS011;49201;53.426;10.300;2023-04-15T06:15:29;63.47;;;35.70;;
63110;SDS011;49201;53.426;10.300;2023-04-15T06:17:55;69.20;;;39.87;;
63110;SDS011;49201;53.426;10.300;2023-04-15T06:20:20;69.33;;;38.87;;
63110;SDS011;49201;53.426;10.300;2023-04-15T06:22:46;71.37;;;38.10;;
63110;SDS011;49201;53.426;10.300;2023-04-15T06:25:11;65.93;;;38.67;;
63110;SDS011;49201;53.426;10.300;2023-04-15T06:27:37;67.13;;;37.53;;
63110;SDS011;49201;53.426;10.300;2023-04-15T06:30:03;66.10;;;37.37;;
63110;SDS011;49201;53.426;10.300;2023-04-15T06:32:28;62.03;;;35.23;;
63110;SDS011;49201;53.426;10.300;2023-04-15T06:34:54;64.63;;;36.40;;
63110;SDS011;49201;53.426;10.300;2023-04-15T06:37:19;69.17;;;36.40;;
63110;SDS011;49201;53.426;10.300;2023-04-15T06:39:45;61.37;;;35.07;;
63110;SDS011;49201;53.426;10.300;2023-04-15T06:42:11;66.77;;;38.03;;
63110;SDS011;49201;53.426;10.300;2023-04-15T06:44:36;60.03;;;36.67;;
63110;SDS011;49201;53.426;10.300;2023-04-15T06:47:02;67.60;;;38.93;;
63110;SDS011;49201;53.426;10.300;2023-04-15T06:49:27;64.17;;;37.03;;
63110;SDS011;49201;53.426;10.300;2023-04-15T06:51:53;63.43;;;36.63;;
63110;SDS011;49201;53.426;10.300;2023-04-15T06:54:19;65.33;;;38.60;;
63110;SDS011;49201;53.426;10.300;2023-04-15T06:56:44;60.13;;;36.10;;
63110;SDS011;49201;53.426;10.300;2023-04-15T06:59:09;61.67;;;37.40;;
63110;SDS011;49201;53.426;10.300;2023-04-15T07:01:35;62.77;;;35.53;;
63110;SDS011;49201;53.426;10.300;2023-04-15T07:04:00;64.17;;;37.03;;
63110;SDS011;49201;53.426;10.300;2023-04-15T07:06:26;64.70;;;37.90;;
63110;SDS011;49201;53.426;10.300;2023-04-15T07:08:52;63.23;;;37.87;;
63110;SDS011;49201;53.426;10.300;2023-04-15T07:11:18;65.50;;;38.30;;
63110;SDS011;49201;53.426;10.300;2023-04-15T07:13:44;60.40;;;36.93;;
63110;SDS011;49201;53.426;10.300;2023-04-15T07:16:09;65.07;;;38.20;;
63110;SDS011;49201;53.426;10.300;2023-04-15T07:18:35;60.80;;;37.73;;
63110;SDS011;49201;53.426;10.300;2023-04-15T07:21:00;57.53;;;35.20;;
63110;SDS011;49201;53.426;10.300;2023-04-15T07:23:26;58.07;;;35.40;;
63110;SDS011;49201;53.426;10.300;2023-04-15T07:25:52;65.17;;;38.30;;
63110;SDS011;49201;53.426;10.300;2023-04-15T07:28:17;62.10;;;36.57;;
63110;SDS011;49201;53.426;10.300;2023-04-15T07:30:43;60.93;;;39.13;;
63110;SDS011;49201;53.426;10.300;2023-04-15T07:33:08;63.57;;;38.43;;
63110;SDS011;49201;53.426;10.300;2023-04-15T07:35:34;59.57;;;37.33;;
63110;SDS011;49201;53.426;10.300;2023-04-15T07:37:59;62.00;;;38.63;;
63110;SDS011;49201;53.426;10.300;2023-04-15T07:40:25;66.10;;;39.43;;
63110;SDS011;49201;53.426;10.300;2023-04-15T07:42:50;67.37;;;40.10;;
63110;SDS011;49201;53.426;10.300;2023-04-15T07:45:16;62.67;;;38.67;;
63110;SDS011;49201;53.426;10.300;2023-04-15T07:47:42;68.33;;;40.07;;
63110;SDS011;49201;53.426;10.300;2023-04-15T07:50:08;70.20;;;40.03;;
63110;SDS011;49201;53.426;10.300;2023-04-15T07:52:35;64.63;;;38.93;;
63110;SDS011;49201;53.426;10.300;2023-04-15T07:55:04;63.37;;;39.10;;
63110;SDS011;49201;53.426;10.300;2023-04-15T07:57:31;67.63;;;39.23;;
63110;SDS011;49201;53.426;10.300;2023-04-15T07:59:56;66.50;;;39.03;;
63110;SDS011;49201;53.426;10.300;2023-04-15T08:02:22;63.47;;;38.30;;
63110;SDS011;49201;53.426;10.300;2023-04-15T08:04:47;60.57;;;38.00;;
63110;SDS011;49201;53.426;10.300;2023-04-15T08:07:13;56.23;;;36.67;;
63110;SDS011;49201;53.426;10.300;2023-04-15T08:09:38;59.83;;;38.50;;
63110;SDS011;49201;53.426;10.300;2023-04-15T08:12:04;64.97;;;39.27;;
63110;SDS011;49201;53.426;10.300;2023-04-15T08:14:30;62.33;;;39.27;;
63110;SDS011;49201;53.426;10.300;2023-04-15T08:16:55;62.83;;;38.63;;
63110;SDS011;49201;53.426;10.300;2023-04-15T08:19:21;64.33;;;38.73;;
63110;SDS011;49201;53.426;10.300;2023-04-15T08:21:47;63.87;;;40.23;;
63110;SDS011;49201;53.426;10.300;2023-04-15T08:24:12;65.57;;;40.90;;
63110;SDS011;49201;53.426;10.300;2023-04-15T08:26:38;64.20;;;40.03;;
63110;SDS011;49201;53.426;10.300;2023-04-15T08:29:04;63.03;;;39.77;;
63110;SDS011;49201;53.426;10.300;2023-04-15T08:31:29;62.73;;;38.77;;
63110;SDS011;49201;53.426;10.300;2023-04-15T08:33:55;61.57;;;40.43;;
63110;SDS011;49201;53.426;10.300;2023-04-15T08:36:21;63.90;;;39.80;;
63110;SDS011;49201;53.426;10.300;2023-04-15T08:38:47;64.37;;;39.73;;
63110;SDS011;49201;53.426;10.300;2023-04-15T08:41:22;66.87;;;39.10;;
63110;SDS011;49201;53.426;10.300;2023-04-15T08:46:28;61.27;;;38.83;;
63110;SDS011;49201;53.426;10.300;2023-04-15T08:48:56;60.97;;;37.63;;
63110;SDS011;49201;53.426;10.300;2023-04-15T08:51:22;60.47;;;38.20;;
63110;SDS011;49201;53.426;10.300;2023-04-15T08:53:49;62.93;;;38.10;;
63110;SDS011;49201;53.426;10.300;2023-04-15T08:56:15;66.20;;;38.50;;
63110;SDS011;49201;53.426;10.300;2023-04-15T08:58:42;56.63;;;36.93;;
63110;SDS011;49201;53.426;10.300;2023-04-15T09:01:08;55.00;;;35.50;;
63110;SDS011;49201;53.426;10.300;2023-04-15T09:03:34;55.50;;;35.27;;
63110;SDS011;49201;53.426;10.300;2023-04-15T09:06:00;56.50;;;35.43;;
63110;SDS011;49201;53.426;10.300;2023-04-15T09:08:30;83.10;;;49.67;;
63110;SDS011;49201;53.426;10.300;2023-04-15T09:10:55;65.10;;;41.40;;
63110;SDS011;49201;53.426;10.300;2023-04-15T09:13:21;56.87;;;38.63;;
63110;SDS011;49201;53.426;10.300;2023-04-15T09:15:47;52.43;;;34.57;;
63110;SDS011;49201;53.426;10.300;2023-04-15T09:18:12;52.60;;;34.77;;
63110;SDS011;49201;53.426;10.300;2023-04-15T09:20:50;51.93;;;31.57;;
63110;SDS011;49201;53.426;10.300;2023-04-15T09:23:17;49.47;;;33.37;;
63110;SDS011;49201;53.426;10.300;2023-04-15T09:25:43;50.00;;;33.63;;
63110;SDS011;49201;53.426;10.300;2023-04-15T09:28:09;50.43;;;32.43;;
63110;SDS011;49201;53.426;10.300;2023-04-15T09:30:35;46.10;;;31.23;;
63110;SDS011;49201;53.426;10.300;2023-04-15T09:33:02;49.10;;;31.77;;
63110;SDS011;49201;53.426;10.300;2023-04-15T09:35:32;47.57;;;30.97;;
63110;SDS011;49201;53.426;10.300;2023-04-15T09:38:06;41.60;;;28.10;;
63110;SDS011;49201;53.426;10.300;2023-04-15T09:40:37;46.20;;;32.57;;
63110;SDS011;49201;53.426;10.300;2023-04-15T09:43:04;43.77;;;29.27;;
63110;SDS011;49201;53.426;10.300;2023-04-15T09:45:31;39.00;;;28.57;;
63110;SDS011;49201;53.426;10.300;2023-04-15T09:47:58;37.30;;;26.43;;
63110;SDS011;49201;53.426;10.300;2023-04-15T09:50:27;38.33;;;26.70;;
63110;SDS011;49201;53.426;10.300;2023-04-15T09:52:53;33.97;;;25.83;;
63110;SDS011;49201;53.426;10.300;2023-04-15T09:55:19;35.50;;;25.53;;
63110;SDS011;49201;53.426;10.300;2023-04-15T09:57:45;32.77;;;24.23;;
63110;SDS011;49201;53.426;10.300;2023-04-15T10:00:14;34.67;;;23.40;;
63110;SDS011;49201;53.426;10.300;2023-04-15T10:02:40;29.37;;;22.27;;
63110;SDS011;49201;53.426;10.300;2023-04-15T10:05:13;31.97;;;22.93;;
63110;SDS011;49201;53.426;10.300;2023-04-15T10:07:40;33.00;;;23.60;;
63110;SDS011;49201;53.426;10.300;2023-04-15T10:10:07;30.57;;;23.10;;
63110;SDS011;49201;53.426;10.300;2023-04-15T10:12:34;27.83;;;21.70;;
63110;SDS011;49201;53.426;10.300;2023-04-15T10:15:04;30.03;;;21.50;;
63110;SDS011;49201;53.426;10.300;2023-04-15T10:17:31;31.00;;;23.00;;
63110;SDS011;49201;53.426;10.300;2023-04-15T10:20:02;31.87;;;22.73;;
63110;SDS011;49201;53.426;10.300;2023-04-15T10:22:29;30.67;;;22.67;;
63110;SDS011;49201;53.426;10.300;2023-04-15T10:24:56;30.07;;;22.30;;
63110;SDS011;49201;53.426;10.300;2023-04-15T10:27:22;29.03;;;21.70;;
63110;SDS011;49201;53.426;10.300;2023-04-15T10:29:49;29.63;;;21.87;;
63110;SDS011;49201;53.426;10.300;2023-04-15T10:32:16;27.90;;;21.40;;
63110;SDS011;49201;53.426;10.300;2023-04-15T10:34:45;28.37;;;21.83;;
63110;SDS011;49201;53.426;10.300;2023-04-15T10:37:11;29.23;;;21.27;;
63110;SDS011;49201;53.426;10.300;2023-04-15T10:39:38;30.73;;;21.60;;
63110;SDS011;49201;53.426;10.300;2023-04-15T10:42:09;31.13;;;21.77;;
63110;SDS011;49201;53.426;10.300;2023-04-15T10:44:43;27.83;;;20.60;;
63110;SDS011;49201;53.426;10.300;2023-04-15T10:47:13;28.93;;;21.43;;
63110;SDS011;49201;53.426;10.300;2023-04-15T10:50:01;28.00;;;21.27;;
63110;SDS011;49201;53.426;10.300;2023-04-15T10:52:28;28.30;;;20.40;;
63110;SDS011;49201;53.426;10.300;2023-04-15T10:55:10;28.40;;;20.17;;
63110;SDS011;49201;53.426;10.300;2023-04-15T10:57:43;27.37;;;19.20;;
63110;SDS011;49201;53.426;10.300;2023-04-15T11:02:41;28.97;;;19.60;;
63110;SDS011;49201;53.426;10.300;2023-04-15T11:05:10;24.73;;;19.30;;
63110;SDS011;49201;53.426;10.300;2023-04-15T11:07:40;21.20;;;16.80;;
63110;SDS011;49201;53.426;10.300;2023-04-15T11:12:51;22.93;;;18.97;;
63110;SDS011;49201;53.426;10.300;2023-04-15T11:15:28;25.57;;;18.30;;
63110;SDS011;49201;53.426;10.300;2023-04-15T11:17:57;26.57;;;20.07;;
63110;SDS011;49201;53.426;10.300;2023-04-15T11:20:42;24.70;;;17.97;;
63110;SDS011;49201;53.426;10.300;2023-04-15T11:23:13;21.23;;;18.57;;
63110;SDS011;49201;53.426;10.300;2023-04-15T11:25:39;22.53;;;17.87;;
63110;SDS011;49201;53.426;10.300;2023-04-15T11:28:05;24.10;;;18.23;;
63110;SDS011;49201;53.426;10.300;2023-04-15T11:30:34;22.57;;;18.13;;
63110;SDS011;49201;53.426;10.300;2023-04-15T11:33:02;24.33;;;17.70;;
63110;SDS011;49201;53.426;10.300;2023-04-15T11:35:29;21.50;;;17.47;;
63110;SDS011;49201;53.426;10.300;2023-04-15T11:37:55;21.23;;;17.53;;
63110;SDS011;49201;53.426;10.300;2023-04-15T11:40:24;21.23;;;16.57;;
63110;SDS011;49201;53.426;10.300;2023-04-15T11:43:08;21.87;;;17.03;;
63110;SDS011;49201;53.426;10.300;2023-04-15T11:48:17;20.37;;;17.40;;
63110;SDS011;49201;53.426;10.300;2023-04-15T11:50:43;22.77;;;18.37;;
63110;SDS011;49201;53.426;10.300;2023-04-15T11:53:10;25.03;;;18.60;;
63110;SDS011;49201;53.426;10.300;2023-04-15T11:55:46;21.30;;;18.17;;
63110;SDS011;49201;53.426;10.300;2023-04-15T11:58:14;22.63;;;17.80;;
63110;SDS011;49201;53.426;10.300;2023-04-15T12:01:00;21.30;;;18.17;;
63110;SDS011;49201;53.426;10.300;2023-04-15T12:03:26;20.97;;;18.07;;
63110;SDS011;49201;53.426;10.300;2023-04-15T12:14:02;19.10;;;16.30;;
63110;SDS011;49201;53.426;10.300;2023-04-15T12:16:37;18.47;;;14.70;;
63110;SDS011;49201;53.426;10.300;2023-04-15T12:19:06;19.33;;;15.20;;
63110;SDS011;49201;53.426;10.300;2023-04-15T12:21:35;20.10;;;15.77;;
63110;SDS011;49201;53.426;10.300;2023-04-15T12:24:03;17.70;;;15.47;;
63110;SDS011;49201;53.426;10.300;2023-04-15T12:26:34;16.03;;;14.33;;
63110;SDS011;49201;53.426;10.300;2023-04-15T12:29:11;15.73;;;13.27;;
63110;SDS011;49201;53.426;10.300;2023-04-15T12:34:33;15.30;;;12.67;;
63110;SDS011;49201;53.426;10.300;2023-04-15T12:37:00;14.97;;;13.43;;
63110;SDS011;49201;53.426;10.300;2023-04-15T12:39:29;15.83;;;13.70;;
63110;SDS011;49201;53.426;10.300;2023-04-15T12:42:00;14.90;;;13.33;;
63110;SDS011;49201;53.426;10.300;2023-04-15T12:44:26;17.90;;;14.00;;
63110;SDS011;49201;53.426;10.300;2023-04-15T12:46:52;17.83;;;14.07;;
63110;SDS011;49201;53.426;10.300;2023-04-15T12:49:19;17.00;;;14.20;;
63110;SDS011;49201;53.426;10.300;2023-04-15T12:51:49;15.83;;;13.50;;
63110;SDS011;49201;53.426;10.300;2023-04-15T12:54:16;15.27;;;13.27;;
63110;SDS011;49201;53.426;10.300;2023-04-15T12:56:43;15.10;;;13.10;;
63110;SDS011;49201;53.426;10.300;2023-04-15T12:59:10;14.13;;;12.63;;
63110;SDS011;49201;53.426;10.300;2023-04-15T13:01:35;15.33;;;12.80;;
63110;SDS011;49201;53.426;10.300;2023-04-15T13:04:01;15.70;;;13.43;;
63110;SDS011;49201;53.426;10.300;2023-04-15T13:06:26;16.43;;;13.33;;
63110;SDS011;49201;53.426;10.300;2023-04-15T13:08:53;14.07;;;12.33;;
63110;SDS011;49201;53.426;10.300;2023-04-15T13:11:19;16.67;;;12.67;;
63110;SDS011;49201;53.426;10.300;2023-04-15T13:13:46;16.53;;;14.13;;
63110;SDS011;49201;53.426;10.300;2023-04-15T13:16:12;17.17;;;13.67;;
63110;SDS011;49201;53.426;10.300;2023-04-15T13:18:37;16.57;;;14.27;;
63110;SDS011;49201;53.426;10.300;2023-04-15T13:21:03;18.20;;;13.30;;
63110;SDS011;49201;53.426;10.300;2023-04-15T13:23:28;16.30;;;13.47;;
63110;SDS011;49201;53.426;10.300;2023-04-15T13:25:54;16.73;;;13.57;;
63110;SDS011;49201;53.426;10.300;2023-04-15T13:28:20;16.40;;;13.90;;
63110;SDS011;49201;53.426;10.300;2023-04-15T13:30:45;18.73;;;14.70;;
63110;SDS011;49201;53.426;10.300;2023-04-15T13:33:12;19.40;;;14.47;;
63110;SDS011;49201;53.426;10.300;2023-04-15T13:35:38;17.50;;;13.93;;
63110;SDS011;49201;53.426;10.300;2023-04-15T13:38:04;15.47;;;13.80;;
63110;SDS011;49201;53.426;10.300;2023-04-15T13:40:29;16.30;;;13.70;;
63110;SDS011;49201;53.426;10.300;2023-04-15T13:42:55;15.97;;;14.27;;
63110;SDS011;49201;53.426;10.300;2023-04-15T13:45:21;15.37;;;13.30;;
63110;SDS011;49201;53.426;10.300;2023-04-15T13:47:46;17.33;;;14.10;;
63110;SDS011;49201;53.426;10.300;2023-04-15T13:50:12;18.33;;;13.83;;
63110;SDS011;49201;53.426;10.300;2023-04-15T13:52:37;16.87;;;13.63;;
63110;SDS011;49201;53.426;10.300;2023-04-15T13:55:03;17.37;;;14.30;;
63110;SDS011;49201;53.426;10.300;2023-04-15T13:57:29;17.63;;;13.30;;
63110;SDS011;49201;53.426;10.300;2023-04-15T13:59:55;14.40;;;12.90;;
63110;SDS011;49201;53.426;10.300;2023-04-15T14:02:22;14.40;;;12.87;;
63110;SDS011;49201;53.426;10.300;2023-04-15T14:04:47;15.23;;;13.03;;
63110;SDS011;49201;53.426;10.300;2023-04-15T14:07:13;17.53;;;14.23;;
63110;SDS011;49201;53.426;10.300;2023-04-15T14:09:38;15.20;;;13.50;;
63110;SDS011;49201;53.426;10.300;2023-04-15T14:12:04;14.37;;;12.87;;
63110;SDS011;49201;53.426;10.300;2023-04-15T14:14:29;15.20;;;13.63;;
63110;SDS011;49201;53.426;10.300;2023-04-15T14:16:55;14.20;;;12.73;;
63110;SDS011;49201;53.426;10.300;2023-04-15T14:19:21;15.30;;;13.13;;
63110;SDS011;49201;53.426;10.300;2023-04-15T14:21:47;15.57;;;12.63;;
63110;SDS011;49201;53.426;10.300;2023-04-15T14:24:13;14.17;;;12.60;;
63110;SDS011;49201;53.426;10.300;2023-04-15T14:26:38;14.57;;;12.60;;
63110;SDS011;49201;53.426;10.300;2023-04-15T14:29:03;14.80;;;13.07;;
63110;SDS011;49201;53.426;10.300;2023-04-15T14:31:29;15.77;;;12.47;;